sensor_id;sensor_type;location;lat;lon;timestamp;pressure;altitude;pressure_sealevel;temperature;humidity
32492;BME280;20605;49.742;18.802;2023-04-24T00:02:18;96901.70;;;13.31;75.75
32492;BME280;20605;49.742;18.802;2023-04-24T00:04:44;96900.70;;;13.33;75.68
32492;BME280;20605;49.742;18.802;2023-04-24T00:07:10;96899.05;;;13.35;75.50
32492;BME280;20605;49.742;18.802;2023-04-24T00:09:36;96893.29;;;13.38;75.53
32492;BME280;20605;49.742;18.802;2023-04-24T00:12:01;96888.88;;;13.39;75.41
32492;BME280;20605;49.742;18.802;2023-04-24T00:14:30;96884.16;;;13.39;75.48
32492;BME280;20605;49.742;18.802;2023-04-24T00:16:55;96880.41;;;13.38;75.39
32492;BME280;20605;49.742;18.802;2023-04-24T00:19:21;96876.77;;;13.37;75.39
32492;BME280;20605;49.742;18.802;2023-04-24T00:21:46;96874.48;;;13.38;75.22
32492;BME280;20605;49.742;18.802;2023-04-24T00:24:15;96873.40;;;13.38;75.21
32492;BME280;20605;49.742;18.802;2023-04-24T00:26:41;96864.44;;;13.39;75.11
32492;BME280;20605;49.742;18.802;2023-04-24T00:29:06;96857.80;;;13.40;75.01
32492;BME280;20605;49.742;18.802;2023-04-24T00:31:32;96855.72;;;13.40;75.06
32492;BME280;20605;49.742;18.802;2023-04-24T00:34:00;96852.28;;;13.39;75.02
32492;BME280;20605;49.742;18.802;2023-04-24T00:36:26;96848.46;;;13.38;75.10
32492;BME280;20605;49.742;18.802;2023-04-24T00:38:52;96844.40;;;13.39;75.18
32492;BME280;20605;49.742;18.802;2023-04-24T00:41:18;96839.48;;;13.40;75.04
32492;BME280;20605;49.742;18.802;2023-04-24T00:43:44;96839.41;;;13.41;74.93
32492;BME280;20605;49.742;18.802;2023-04-24T00:46:10;96840.90;;;13.43;74.64
32492;BME280;20605;49.742;18.802;2023-04-24T00:48:37;96831.45;;;13.46;74.59
32492;BME280;20605;49.742;18.802;2023-04-24T00:51:04;96830.33;;;13.48;74.55
32492;BME280;20605;49.742;18.802;2023-04-24T00:53:29;96827.83;;;13.49;74.47
32492;BME280;20605;49.742;18.802;2023-04-24T00:55:55;96824.39;;;13.51;74.17
32492;BME280;20605;49.742;18.802;2023-04-24T00:58:21;96821.45;;;13.53;74.18
32492;BME280;20605;49.742;18.802;2023-04-24T01:00:47;96819.14;;;13.54;74.11
32492;BME280;20605;49.742;18.802;2023-04-24T01:03:13;96815.67;;;13.54;74.14
32492;BME280;20605;49.742;18.802;2023-04-24T01:05:39;96811.96;;;13.54;73.96
32492;BME280;20605;49.742;18.802;2023-04-24T01:08:05;96811.61;;;13.54;73.83
32492;BME280;20605;49.742;18.802;2023-04-24T01:10:31;96816.77;;;13.56;73.69
32492;BME280;20605;49.742;18.802;2023-04-24T01:12:58;96806.38;;;13.57;73.77
32492;BME280;20605;49.742;18.802;2023-04-24T01:15:24;96803.98;;;13.56;73.75
32492;BME280;20605;49.742;18.802;2023-04-24T01:17:49;96800.36;;;13.56;73.73
32492;BME280;20605;49.742;18.802;2023-04-24T01:20:15;96800.58;;;13.55;73.72
32492;BME280;20605;49.742;18.802;2023-04-24T01:22:42;96805.40;;;13.53;73.77
32492;BME280;20605;49.742;18.802;2023-04-24T01:25:07;96806.82;;;13.56;73.49
32492;BME280;20605;49.742;18.802;2023-04-24T01:27:33;96798.40;;;13.57;73.49
32492;BME280;20605;49.742;18.802;2023-04-24T01:29:59;96803.80;;;13.57;73.28
32492;BME280;20605;49.742;18.802;2023-04-24T01:32:25;96800.70;;;13.59;73.25
32492;BME280;20605;49.742;18.802;2023-04-24T01:34:50;96798.99;;;13.61;73.13
32492;BME280;20605;49.742;18.802;2023-04-24T01:37:16;96803.43;;;13.65;72.84
32492;BME280;20605;49.742;18.802;2023-04-24T01:39:42;96806.84;;;13.70;72.52
32492;BME280;20605;49.742;18.802;2023-04-24T01:42:08;96800.17;;;13.76;72.04
32492;BME280;20605;49.742;18.802;2023-04-24T01:44:34;96794.95;;;13.79;72.22
32492;BME280;20605;49.742;18.802;2023-04-24T01:47:00;96789.71;;;13.79;72.13
32492;BME280;20605;49.742;18.802;2023-04-24T01:49:26;96792.46;;;13.80;71.89
32492;BME280;20605;49.742;18.802;2023-04-24T01:51:51;96786.09;;;13.81;71.57
32492;BME280;20605;49.742;18.802;2023-04-24T01:54:17;96781.67;;;13.85;71.46
32492;BME280;20605;49.742;18.802;2023-04-24T01:56:43;96786.23;;;13.87;71.08
32492;BME280;20605;49.742;18.802;2023-04-24T01:59:12;96783.70;;;13.89;71.08
32492;BME280;20605;49.742;18.802;2023-04-24T02:01:38;96786.14;;;13.92;70.71
32492;BME280;20605;49.742;18.802;2023-04-24T02:04:04;96782.66;;;13.94;70.64
32492;BME280;20605;49.742;18.802;2023-04-24T02:06:30;96776.77;;;13.94;70.57
32492;BME280;20605;49.742;18.802;2023-04-24T02:08:59;96780.03;;;13.92;70.75
32492;BME280;20605;49.742;18.802;2023-04-24T02:11:25;96773.81;;;13.91;70.54
32492;BME280;20605;49.742;18.802;2023-04-24T02:13:51;96770.92;;;13.92;70.47
32492;BME280;20605;49.742;18.802;2023-04-24T02:16:17;96767.16;;;13.91;70.51
32492;BME280;20605;49.742;18.802;2023-04-24T02:18:43;96771.55;;;13.90;70.54
32492;BME280;20605;49.742;18.802;2023-04-24T02:21:09;96770.76;;;13.89;70.38
32492;BME280;20605;49.742;18.802;2023-04-24T02:23:34;96766.80;;;13.88;70.32
32492;BME280;20605;49.742;18.802;2023-04-24T02:26:00;96767.40;;;13.87;70.47
32492;BME280;20605;49.742;18.802;2023-04-24T02:28:26;96764.36;;;13.86;70.49
32492;BME280;20605;49.742;18.802;2023-04-24T02:30:51;96768.40;;;13.85;70.31
32492;BME280;20605;49.742;18.802;2023-04-24T02:33:19;96770.36;;;13.85;70.35
32492;BME280;20605;49.742;18.802;2023-04-24T02:35:45;96761.52;;;13.86;69.79
32492;BME280;20605;49.742;18.802;2023-04-24T02:38:11;96758.08;;;13.89;69.87
32492;BME280;20605;49.742;18.802;2023-04-24T02:40:36;96761.42;;;13.88;69.70
32492;BME280;20605;49.742;18.802;2023-04-24T02:43:02;96761.07;;;13.88;69.80
32492;BME280;20605;49.742;18.802;2023-04-24T02:45:27;96753.63;;;13.87;69.70
32492;BME280;20605;49.742;18.802;2023-04-24T02:47:53;96755.80;;;13.86;69.74
32492;BME280;20605;49.742;18.802;2023-04-24T02:50:18;96753.98;;;13.84;69.93
32492;BME280;20605;49.742;18.802;2023-04-24T02:52:45;96754.27;;;13.82;69.80
32492;BME280;20605;49.742;18.802;2023-04-24T02:55:11;96753.27;;;13.82;69.80
32492;BME280;20605;49.742;18.802;2023-04-24T02:57:36;96750.42;;;13.80;70.07
32492;BME280;20605;49.742;18.802;2023-04-24T03:00:02;96749.44;;;13.76;70.20
32492;BME280;20605;49.742;18.802;2023-04-24T03:02:28;96748.02;;;13.73;70.28
32492;BME280;20605;49.742;18.802;2023-04-24T03:04:53;96752.35;;;13.71;70.25
32492;BME280;20605;49.742;18.802;2023-04-24T03:07:20;96751.29;;;13.71;70.32
32492;BME280;20605;49.742;18.802;2023-04-24T03:09:46;96749.66;;;13.69;70.29
32492;BME280;20605;49.742;18.802;2023-04-24T03:12:14;96753.89;;;13.68;70.30
32492;BME280;20605;49.742;18.802;2023-04-24T03:14:39;96749.73;;;13.68;70.28
32492;BME280;20605;49.742;18.802;2023-04-24T03:17:05;96749.02;;;13.68;70.21
32492;BME280;20605;49.742;18.802;2023-04-24T03:19:30;96750.47;;;13.67;70.28
32492;BME280;20605;49.742;18.802;2023-04-24T03:22:01;96753.06;;;13.68;70.40
32492;BME280;20605;49.742;18.802;2023-04-24T03:24:28;96756.56;;;13.68;70.27
32492;BME280;20605;49.742;18.802;2023-04-24T03:26:54;96757.45;;;13.67;70.28
32492;BME280;20605;49.742;18.802;2023-04-24T03:29:41;96749.92;;;13.68;70.25
32492;BME280;20605;49.742;18.802;2023-04-24T03:32:07;96750.67;;;13.67;70.22
32492;BME280;20605;49.742;18.802;2023-04-24T03:34:35;96753.83;;;13.66;70.09
32492;BME280;20605;49.742;18.802;2023-04-24T03:37:01;96750.61;;;13.68;70.09
32492;BME280;20605;49.742;18.802;2023-04-24T03:39:27;96745.67;;;13.68;70.08
32492;BME280;20605;49.742;18.802;2023-04-24T03:41:54;96744.30;;;13.68;70.09
32492;BME280;20605;49.742;18.802;2023-04-24T03:44:25;96740.84;;;13.68;70.20
32492;BME280;20605;49.742;18.802;2023-04-24T03:46:52;96740.65;;;13.68;70.16
32492;BME280;20605;49.742;18.802;2023-04-24T03:49:18;96739.95;;;13.68;70.08
32492;BME280;20605;49.742;18.802;2023-04-24T03:51:45;96738.09;;;13.70;70.10
32492;BME280;20605;49.742;18.802;2023-04-24T03:54:17;96736.77;;;13.72;69.67
32492;BME280;20605;49.742;18.802;2023-04-24T03:56:43;96746.99;;;13.76;69.50
32492;BME280;20605;49.742;18.802;2023-04-24T03:59:09;96740.77;;;13.81;69.41
32492;BME280;20605;49.742;18.802;2023-04-24T04:01:35;96736.90;;;13.81;69.62
32492;BME280;20605;49.742;18.802;2023-04-24T04:04:10;96738.22;;;13.82;69.58
32492;BME280;20605;49.742;18.802;2023-04-24T04:06:37;96736.83;;;13.82;69.66
32492;BME280;20605;49.742;18.802;2023-04-24T04:09:03;96736.79;;;13.83;69.56
32492;BME280;20605;49.742;18.802;2023-04-24T04:11:29;96735.84;;;13.84;69.65
32492;BME280;20605;49.742;18.802;2023-04-24T04:13:55;96737.66;;;13.83;69.74
32492;BME280;20605;49.742;18.802;2023-04-24T04:16:22;96739.02;;;13.84;69.65
32492;BME280;20605;49.742;18.802;2023-04-24T04:18:49;96733.57;;;13.84;69.72
32492;BME280;20605;49.742;18.802;2023-04-24T04:21:15;96730.55;;;13.88;69.81
32492;BME280;20605;49.742;18.802;2023-04-24T04:23:41;96737.85;;;13.91;69.66
32492;BME280;20605;49.742;18.802;2023-04-24T04:26:12;96741.88;;;13.93;69.64
32492;BME280;20605;49.742;18.802;2023-04-24T04:29:07;96744.31;;;13.96;69.62
32492;BME280;20605;49.742;18.802;2023-04-24T04:31:44;96735.92;;;13.99;69.52
32492;BME280;20605;49.742;18.802;2023-04-24T04:34:11;96735.73;;;14.02;69.50
32492;BME280;20605;49.742;18.802;2023-04-24T04:36:38;96732.21;;;14.06;69.28
32492;BME280;20605;49.742;18.802;2023-04-24T04:39:25;96731.55;;;14.11;69.30
32492;BME280;20605;49.742;18.802;2023-04-24T04:41:56;96732.65;;;14.16;68.91
32492;BME280;20605;49.742;18.802;2023-04-24T04:44:24;96735.88;;;14.20;68.77
32492;BME280;20605;49.742;18.802;2023-04-24T04:46:50;96726.19;;;14.24;68.26
32492;BME280;20605;49.742;18.802;2023-04-24T04:49:24;96728.42;;;14.27;68.13
32492;BME280;20605;49.742;18.802;2023-04-24T04:51:50;96727.95;;;14.29;68.16
32492;BME280;20605;49.742;18.802;2023-04-24T04:54:16;96722.44;;;14.30;68.41
32492;BME280;20605;49.742;18.802;2023-04-24T04:56:42;96722.16;;;14.31;68.54
32492;BME280;20605;49.742;18.802;2023-04-24T04:59:07;96723.27;;;14.33;68.13
32492;BME280;20605;49.742;18.802;2023-04-24T05:01:34;96721.87;;;14.36;68.39
32492;BME280;20605;49.742;18.802;2023-04-24T05:04:01;96720.23;;;14.40;68.06
32492;BME280;20605;49.742;18.802;2023-04-24T05:06:26;96713.90;;;14.47;68.28
32492;BME280;20605;49.742;18.802;2023-04-24T05:08:53;96721.73;;;14.74;68.39
32492;BME280;20605;49.742;18.802;2023-04-24T05:11:29;96716.27;;;15.29;67.31
32492;BME280;20605;49.742;18.802;2023-04-24T05:13:55;96715.27;;;15.77;66.32
32492;BME280;20605;49.742;18.802;2023-04-24T05:16:27;96718.41;;;16.16;64.32
32492;BME280;20605;49.742;18.802;2023-04-24T05:18:53;96714.98;;;16.20;63.93
32492;BME280;20605;49.742;18.802;2023-04-24T05:21:22;96717.60;;;16.54;62.97
32492;BME280;20605;49.742;18.802;2023-04-24T05:23:50;96714.11;;;16.85;62.81
32492;BME280;20605;49.742;18.802;2023-04-24T05:26:20;96713.73;;;16.95;61.81
32492;BME280;20605;49.742;18.802;2023-04-24T05:28:46;96711.67;;;16.99;62.70
32492;BME280;20605;49.742;18.802;2023-04-24T05:31:12;96708.39;;;17.19;62.25
32492;BME280;20605;49.742;18.802;2023-04-24T05:33:38;96709.98;;;17.28;61.26
32492;BME280;20605;49.742;18.802;2023-04-24T05:36:03;96707.25;;;17.36;61.34
32492;BME280;20605;49.742;18.802;2023-04-24T05:38:35;96705.38;;;17.43;60.48
32492;BME280;20605;49.742;18.802;2023-04-24T05:41:00;96708.25;;;17.46;61.06
32492;BME280;20605;49.742;18.802;2023-04-24T05:43:26;96703.02;;;17.59;60.47
32492;BME280;20605;49.742;18.802;2023-04-24T05:45:51;96702.42;;;17.94;60.31
32492;BME280;20605;49.742;18.802;2023-04-24T05:48:20;96702.90;;;18.30;59.35
32492;BME280;20605;49.742;18.802;2023-04-24T05:50:48;96696.98;;;18.51;59.25
32492;BME280;20605;49.742;18.802;2023-04-24T05:53:14;96697.70;;;18.71;59.08
32492;BME280;20605;49.742;18.802;2023-04-24T05:55:39;96690.77;;;18.54;57.50
32492;BME280;20605;49.742;18.802;2023-04-24T05:58:05;96696.45;;;18.34;57.58
32492;BME280;20605;49.742;18.802;2023-04-24T06:00:32;96690.73;;;18.41;57.89
32492;BME280;20605;49.742;18.802;2023-04-24T06:03:01;96689.36;;;18.54;58.41
32492;BME280;20605;49.742;18.802;2023-04-24T06:05:29;96694.11;;;18.67;58.40
32492;BME280;20605;49.742;18.802;2023-04-24T06:07:55;96691.48;;;18.80;57.32
32492;BME280;20605;49.742;18.802;2023-04-24T06:10:22;96689.70;;;18.86;56.80
32492;BME280;20605;49.742;18.802;2023-04-24T06:12:49;96685.50;;;18.97;56.66
32492;BME280;20605;49.742;18.802;2023-04-24T06:15:17;96677.56;;;19.30;57.34
32492;BME280;20605;49.742;18.802;2023-04-24T06:17:56;96682.38;;;20.07;57.12
32492;BME280;20605;49.742;18.802;2023-04-24T06:20:22;96677.81;;;20.55;55.04
32492;BME280;20605;49.742;18.802;2023-04-24T06:22:48;96682.02;;;20.63;54.02
32492;BME280;20605;49.742;18.802;2023-04-24T06:25:13;96675.20;;;20.30;53.32
32492;BME280;20605;49.742;18.802;2023-04-24T06:27:39;96677.25;;;19.83;53.43
32492;BME280;20605;49.742;18.802;2023-04-24T06:30:07;96679.02;;;19.40;53.64
32492;BME280;20605;49.742;18.802;2023-04-24T06:32:33;96676.01;;;19.13;54.35
32492;BME280;20605;49.742;18.802;2023-04-24T06:34:58;96672.45;;;19.01;54.92
32492;BME280;20605;49.742;18.802;2023-04-24T06:37:24;96671.77;;;18.90;55.22
32492;BME280;20605;49.742;18.802;2023-04-24T06:39:50;96672.66;;;18.78;55.65
32492;BME280;20605;49.742;18.802;2023-04-24T06:42:15;96666.91;;;18.71;55.99
32492;BME280;20605;49.742;18.802;2023-04-24T06:44:42;96661.39;;;19.13;56.93
32492;BME280;20605;49.742;18.802;2023-04-24T06:47:08;96657.88;;;20.32;56.57
32492;BME280;20605;49.742;18.802;2023-04-24T06:49:36;96660.04;;;21.42;55.31
32492;BME280;20605;49.742;18.802;2023-04-24T06:52:05;96658.39;;;22.13;53.89
32492;BME280;20605;49.742;18.802;2023-04-24T06:54:31;96656.27;;;22.55;53.05
32492;BME280;20605;49.742;18.802;2023-04-24T06:56:57;96657.96;;;23.00;52.16
32492;BME280;20605;49.742;18.802;2023-04-24T06:59:24;96655.12;;;23.04;50.01
32492;BME280;20605;49.742;18.802;2023-04-24T07:01:50;96653.79;;;22.93;50.90
32492;BME280;20605;49.742;18.802;2023-04-24T07:04:18;96658.16;;;22.63;51.08
32492;BME280;20605;49.742;18.802;2023-04-24T07:06:47;96658.77;;;22.24;51.20
32492;BME280;20605;49.742;18.802;2023-04-24T07:09:16;96661.38;;;21.86;52.66
32492;BME280;20605;49.742;18.802;2023-04-24T07:11:44;96661.90;;;21.56;53.08
32492;BME280;20605;49.742;18.802;2023-04-24T07:14:09;96657.98;;;21.17;53.47
32492;BME280;20605;49.742;18.802;2023-04-24T07:16:36;96663.20;;;20.85;53.75
32492;BME280;20605;49.742;18.802;2023-04-24T07:19:02;96660.67;;;20.59;54.42
32492;BME280;20605;49.742;18.802;2023-04-24T07:21:27;96661.46;;;20.38;54.81
32492;BME280;20605;49.742;18.802;2023-04-24T07:23:53;96667.17;;;20.22;55.41
32492;BME280;20605;49.742;18.802;2023-04-24T07:26:19;96669.48;;;20.11;56.17
32492;BME280;20605;49.742;18.802;2023-04-24T07:28:46;96669.76;;;20.02;56.28
32492;BME280;20605;49.742;18.802;2023-04-24T07:31:12;96671.70;;;20.06;56.12
32492;BME280;20605;49.742;18.802;2023-04-24T07:33:37;96671.16;;;20.04;56.91
32492;BME280;20605;49.742;18.802;2023-04-24T07:36:03;96674.71;;;20.22;57.95
32492;BME280;20605;49.742;18.802;2023-04-24T07:38:29;96670.52;;;20.53;57.32
32492;BME280;20605;49.742;18.802;2023-04-24T07:40:55;96669.30;;;20.71;56.51
32492;BME280;20605;49.742;18.802;2023-04-24T07:43:20;96668.59;;;20.88;56.16
32492;BME280;20605;49.742;18.802;2023-04-24T07:45:47;96669.71;;;21.10;56.39
32492;BME280;20605;49.742;18.802;2023-04-24T07:48:12;96676.34;;;21.17;55.58
32492;BME280;20605;49.742;18.802;2023-04-24T07:50:42;96670.55;;;21.20;56.26
32492;BME280;20605;49.742;18.802;2023-04-24T07:53:07;96674.52;;;21.74;55.90
32492;BME280;20605;49.742;18.802;2023-04-24T07:55:33;96676.52;;;21.98;55.79
32492;BME280;20605;49.742;18.802;2023-04-24T07:57:58;96676.63;;;21.91;55.27
32492;BME280;20605;49.742;18.802;2023-04-24T08:00:24;96672.71;;;21.62;54.85
32492;BME280;20605;49.742;18.802;2023-04-24T08:02:50;96678.53;;;21.09;55.07
32492;BME280;20605;49.742;18.802;2023-04-24T08:05:16;96672.03;;;20.66;55.96
32492;BME280;20605;49.742;18.802;2023-04-24T08:07:41;96674.22;;;20.33;55.74
32492;BME280;20605;49.742;18.802;2023-04-24T08:10:09;96665.14;;;20.01;56.71
32492;BME280;20605;49.742;18.802;2023-04-24T08:12:35;96672.23;;;19.88;56.62
32492;BME280;20605;49.742;18.802;2023-04-24T08:15:01;96673.98;;;19.46;56.80
32492;BME280;20605;49.742;18.802;2023-04-24T08:17:26;96669.88;;;19.17;57.18
32492;BME280;20605;49.742;18.802;2023-04-24T08:19:52;96668.55;;;19.04;56.90
32492;BME280;20605;49.742;18.802;2023-04-24T08:22:24;96674.20;;;18.80;57.55
32492;BME280;20605;49.742;18.802;2023-04-24T08:24:50;96669.06;;;18.83;58.02
32492;BME280;20605;49.742;18.802;2023-04-24T08:27:16;96669.29;;;18.91;58.58
32492;BME280;20605;49.742;18.802;2023-04-24T08:29:41;96668.86;;;19.00;58.84
32492;BME280;20605;49.742;18.802;2023-04-24T08:32:07;96670.19;;;19.03;58.89
32492;BME280;20605;49.742;18.802;2023-04-24T08:34:33;96673.61;;;19.00;59.29
32492;BME280;20605;49.742;18.802;2023-04-24T08:36:58;96675.75;;;19.00;59.91
32492;BME280;20605;49.742;18.802;2023-04-24T08:39:24;96682.97;;;19.00;60.45
32492;BME280;20605;49.742;18.802;2023-04-24T08:41:50;96681.27;;;18.97;60.85
32492;BME280;20605;49.742;18.802;2023-04-24T08:44:15;96680.73;;;18.93;61.00
32492;BME280;20605;49.742;18.802;2023-04-24T08:46:44;96685.85;;;18.88;61.05
32492;BME280;20605;49.742;18.802;2023-04-24T08:49:12;96686.05;;;18.75;61.37
32492;BME280;20605;49.742;18.802;2023-04-24T08:51:39;96688.71;;;18.69;61.61
32492;BME280;20605;49.742;18.802;2023-04-24T08:54:04;96689.75;;;18.65;61.94
32492;BME280;20605;49.742;18.802;2023-04-24T08:56:33;96685.92;;;18.60;62.10
32492;BME280;20605;49.742;18.802;2023-04-24T08:59:03;96687.70;;;18.55;62.40
32492;BME280;20605;49.742;18.802;2023-04-24T09:01:33;96685.48;;;18.43;62.55
32492;BME280;20605;49.742;18.802;2023-04-24T09:04:00;96693.55;;;18.33;62.95
32492;BME280;20605;49.742;18.802;2023-04-24T09:06:27;96696.17;;;18.28;63.51
32492;BME280;20605;49.742;18.802;2023-04-24T09:08:53;96697.70;;;18.20;63.60
32492;BME280;20605;49.742;18.802;2023-04-24T09:11:21;96697.55;;;17.98;63.87
32492;BME280;20605;49.742;18.802;2023-04-24T09:13:48;96703.20;;;17.78;64.56
32492;BME280;20605;49.742;18.802;2023-04-24T09:16:14;96702.67;;;17.59;65.35
32492;BME280;20605;49.742;18.802;2023-04-24T09:18:40;96703.45;;;17.47;65.89
32492;BME280;20605;49.742;18.802;2023-04-24T09:21:09;96705.86;;;17.34;66.66
32492;BME280;20605;49.742;18.802;2023-04-24T09:23:35;96704.92;;;17.21;66.80
32492;BME280;20605;49.742;18.802;2023-04-24T09:26:01;96702.74;;;17.13;66.96
32492;BME280;20605;49.742;18.802;2023-04-24T09:28:39;96702.20;;;17.06;67.54
32492;BME280;20605;49.742;18.802;2023-04-24T09:31:09;96694.19;;;17.05;67.65
32492;BME280;20605;49.742;18.802;2023-04-24T09:33:36;96689.42;;;17.13;68.09
32492;BME280;20605;49.742;18.802;2023-04-24T09:36:02;96688.48;;;17.25;68.20
32492;BME280;20605;49.742;18.802;2023-04-24T09:38:37;96686.70;;;17.35;68.25
32492;BME280;20605;49.742;18.802;2023-04-24T09:41:04;96686.56;;;17.43;68.59
32492;BME280;20605;49.742;18.802;2023-04-24T09:43:31;96685.94;;;17.53;68.53
32492;BME280;20605;49.742;18.802;2023-04-24T09:45:57;96686.11;;;17.53;68.60
32492;BME280;20605;49.742;18.802;2023-04-24T09:48:33;96683.76;;;17.56;68.59
32492;BME280;20605;49.742;18.802;2023-04-24T09:50:59;96682.48;;;17.55;68.83
32492;BME280;20605;49.742;18.802;2023-04-24T09:53:27;96680.09;;;17.50;68.65
32492;BME280;20605;49.742;18.802;2023-04-24T09:55:53;96676.29;;;17.38;68.83
32492;BME280;20605;49.742;18.802;2023-04-24T09:58:24;96674.27;;;17.27;69.24
32492;BME280;20605;49.742;18.802;2023-04-24T10:00:55;96674.98;;;17.24;69.57
32492;BME280;20605;49.742;18.802;2023-04-24T10:03:23;96675.80;;;17.23;69.64
32492;BME280;20605;49.742;18.802;2023-04-24T10:05:49;96677.92;;;17.16;70.16
32492;BME280;20605;49.742;18.802;2023-04-24T10:08:17;96675.59;;;17.12;70.58
32492;BME280;20605;49.742;18.802;2023-04-24T10:10:43;96674.19;;;17.03;70.65
32492;BME280;20605;49.742;18.802;2023-04-24T10:13:09;96673.02;;;16.98;71.09
32492;BME280;20605;49.742;18.802;2023-04-24T10:15:36;96674.70;;;16.94;71.23
32492;BME280;20605;49.742;18.802;2023-04-24T10:18:02;96673.76;;;16.86;71.65
32492;BME280;20605;49.742;18.802;2023-04-24T10:20:29;96679.50;;;16.79;72.14
32492;BME280;20605;49.742;18.802;2023-04-24T10:22:56;96686.15;;;16.70;72.74
32492;BME280;20605;49.742;18.802;2023-04-24T10:25:23;96680.56;;;16.63;73.15
32492;BME280;20605;49.742;18.802;2023-04-24T10:27:51;96695.06;;;16.51;73.92
32492;BME280;20605;49.742;18.802;2023-04-24T10:30:18;96710.37;;;16.36;75.26
32492;BME280;20605;49.742;18.802;2023-04-24T10:32:44;96714.84;;;16.17;77.41
32492;BME280;20605;49.742;18.802;2023-04-24T10:35:14;96717.52;;;15.99;78.30
32492;BME280;20605;49.742;18.802;2023-04-24T10:40:36;96728.36;;;15.59;82.52
32492;BME280;20605;49.742;18.802;2023-04-24T10:43:03;96725.58;;;15.34;85.38
32492;BME280;20605;49.742;18.802;2023-04-24T10:45:32;96728.41;;;15.10;86.49
32492;BME280;20605;49.742;18.802;2023-04-24T10:47:58;96730.51;;;14.92;87.74
32492;BME280;20605;49.742;18.802;2023-04-24T10:50:26;96736.86;;;14.69;89.31
32492;BME280;20605;49.742;18.802;2023-04-24T10:52:53;96737.17;;;14.52;91.28
32492;BME280;20605;49.742;18.802;2023-04-24T10:58:06;96739.46;;;14.21;94.09
32492;BME280;20605;49.742;18.802;2023-04-24T11:00:31;96740.62;;;14.05;96.23
32492;BME280;20605;49.742;18.802;2023-04-24T11:02:57;96737.26;;;14.03;97.20
32492;BME280;20605;49.742;18.802;2023-04-24T11:05:49;96737.73;;;14.10;98.11
32492;BME280;20605;49.742;18.802;2023-04-24T11:08:15;96737.41;;;14.20;97.81
32492;BME280;20605;49.742;18.802;2023-04-24T11:13:12;96733.34;;;14.40;98.50
32492;BME280;20605;49.742;18.802;2023-04-24T11:15:41;96728.55;;;14.55;99.25
32492;BME280;20605;49.742;18.802;2023-04-24T11:18:17;96727.56;;;14.73;99.65
32492;BME280;20605;49.742;18.802;2023-04-24T11:20:45;96731.23;;;14.91;98.69
32492;BME280;20605;49.742;18.802;2023-04-24T11:23:12;96729.20;;;15.06;98.91
32492;BME280;20605;49.742;18.802;2023-04-24T11:25:37;96726.22;;;15.17;98.82
32492;BME280;20605;49.742;18.802;2023-04-24T11:28:04;96728.68;;;15.32;99.82
32492;BME280;20605;49.742;18.802;2023-04-24T11:30:29;96723.77;;;15.45;99.02
32492;BME280;20605;49.742;18.802;2023-04-24T11:32:56;96729.09;;;15.59;98.01
32492;BME280;20605;49.742;18.802;2023-04-24T11:35:27;96724.24;;;15.56;96.73
32492;BME280;20605;49.742;18.802;2023-04-24T11:37:55;96729.16;;;15.53;98.49
32492;BME280;20605;49.742;18.802;2023-04-24T11:40:21;96725.60;;;15.54;98.24
32492;BME280;20605;49.742;18.802;2023-04-24T11:42:51;96727.79;;;15.58;97.14
32492;BME280;20605;49.742;18.802;2023-04-24T11:45:18;96730.84;;;15.52;97.64
32492;BME280;20605;49.742;18.802;2023-04-24T11:47:45;96729.75;;;15.52;98.12
32492;BME280;20605;49.742;18.802;2023-04-24T11:50:12;96727.58;;;15.59;97.81
32492;BME280;20605;49.742;18.802;2023-04-24T11:52:39;96729.05;;;15.62;98.26
32492;BME280;20605;49.742;18.802;2023-04-24T11:57:46;96723.20;;;15.73;98.46
32492;BME280;20605;49.742;18.802;2023-04-24T12:00:22;96724.89;;;15.79;98.12
32492;BME280;20605;49.742;18.802;2023-04-24T12:02:48;96726.52;;;15.81;97.40
32492;BME280;20605;49.742;18.802;2023-04-24T12:07:46;96730.54;;;15.51;99.16
32492;BME280;20605;49.742;18.802;2023-04-24T12:10:11;96733.32;;;15.28;97.99
32492;BME280;20605;49.742;18.802;2023-04-24T12:12:37;96735.23;;;15.00;98.76
32492;BME280;20605;49.742;18.802;2023-04-24T12:15:06;96736.15;;;14.75;99.61
32492;BME280;20605;49.742;18.802;2023-04-24T12:17:32;96737.73;;;14.53;99.45
32492;BME280;20605;49.742;18.802;2023-04-24T12:19:59;96742.23;;;14.35;100.00
32492;BME280;20605;49.742;18.802;2023-04-24T12:22:25;96741.86;;;14.13;100.00
32492;BME280;20605;49.742;18.802;2023-04-24T12:27:22;96748.47;;;13.83;100.00
32492;BME280;20605;49.742;18.802;2023-04-24T12:30:09;96750.44;;;13.71;100.00
32492;BME280;20605;49.742;18.802;2023-04-24T12:32:40;96748.58;;;13.53;100.00
32492;BME280;20605;49.742;18.802;2023-04-24T12:35:06;96748.10;;;13.37;100.00
32492;BME280;20605;49.742;18.802;2023-04-24T12:37:32;96739.75;;;13.25;100.00
32492;BME280;20605;49.742;18.802;2023-04-24T12:40:02;96741.11;;;13.20;100.00
32492;BME280;20605;49.742;18.802;2023-04-24T12:42:29;96743.71;;;13.17;100.00
32492;BME280;20605;49.742;18.802;2023-04-24T12:44:56;96742.63;;;13.24;100.00
32492;BME280;20605;49.742;18.802;2023-04-24T12:47:22;96743.98;;;13.27;100.00
32492;BME280;20605;49.742;18.802;2023-04-24T12:49:48;96743.06;;;13.25;100.00
32492;BME280;20605;49.742;18.802;2023-04-24T12:52:16;96743.11;;;13.22;100.00
32492;BME280;20605;49.742;18.802;2023-04-24T12:54:42;96746.41;;;13.09;100.00
32492;BME280;20605;49.742;18.802;2023-04-24T12:57:08;96743.13;;;12.95;100.00
32492;BME280;20605;49.742;18.802;2023-04-24T12:59:33;96742.42;;;12.86;100.00
32492;BME280;20605;49.742;18.802;2023-04-24T13:01:59;96737.98;;;12.81;100.00
32492;BME280;20605;49.742;18.802;2023-04-24T13:04:24;96739.61;;;12.86;100.00
32492;BME280;20605;49.742;18.802;2023-04-24T13:06:50;96736.43;;;12.96;100.00